Wetterdaten: aktuell Freitag, 18.09.2020 21:10
Datum Zeit Temp. A. Temp.Scheune Temp.Glash Feuchte A. LF Scheune LF Glashaus Luftdruck Regen Wind Richtung Richtung Sonnenschein Taupunkt Windchill
18.09.2020 21:10 9,3 C 13,0 C 17,6 C 67 % 58 % 60 % 1027,6 hPa 0,0 l/m 0,0 km/h S-SW 205 0 min 3,5 C 9,3 C
18.09.2020 20:10 10,5 C 14,4 C 17,6 C 67 % 57 % 60 % 1027,3 hPa 0,0 l/m 0,0 km/h W 270 0 min 4,6 C 10,5 C
18.09.2020 19:10 12,6 C 16,5 C 17,6 C 58 % 54 % 60 % 1025,8 hPa 0,0 l/m 0,0 km/h NW 320 4 min 4,6 C 12,6 C
18.09.2020 18:10 16,9 C 18,6 C 17,6 C 44 % 51 % 60 % 1024,8 hPa 0,0 l/m 1,8 km/h S-SO 155 62 min 4,6 C 16,9 C
18.09.2020 17:10 19,8 C 18,6 C 17,6 C 40 % 50 % 60 % 1025,2 hPa 0,0 l/m 6,1 km/h N-NO 30 57 min 5,8 C 19,8 C
18.09.2020 16:10 20,4 C 17,8 C 17,6 C 39 % 52 % 60 % 1025,1 hPa 0,0 l/m 4,8 km/h N 0 61 min 6,0 C 20,4 C
18.09.2020 15:10 19,7 C 15,8 C 17,6 C 38 % 56 % 60 % 1025,3 hPa 0,0 l/m 5,4 km/h W-NW 290 61 min 5,0 C 19,7 C
18.09.2020 14:10 19,3 C 14,6 C 17,6 C 43 % 61 % 60 % 1025,3 hPa 0,0 l/m 3,6 km/h SW 220 58 min 6,4 C 19,3 C
18.09.2020 13:10 17,5 C 14,0 C 17,6 C 53 % 65 % 60 % 1026,8 hPa 0,0 l/m 4,8 km/h NO 35 61 min 7,8 C 17,5 C
18.09.2020 12:10 14,7 C 13,3 C 17,6 C 60 % 66 % 60 % 1027,4 hPa 0,0 l/m 4,8 km/h S 190 61 min 7,0 C 14,7 C
18.09.2020 11:10 12,6 C 12,3 C 17,6 C 64 % 69 % 60 % 1027,9 hPa 0,0 l/m 10,3 km/h S 175 60 min 6,0 C 12,6 C
18.09.2020 10:10 11,0 C 11,4 C 17,6 C 70 % 72 % 60 % 1028,3 hPa 0,0 l/m 3,0 km/h O 100 59 min 5,7 C 11,0 C
18.09.2020 09:10 10,1 C 10,4 C 17,6 C 72 % 73 % 60 % 1028,5 hPa 0,0 l/m 5,4 km/h S 180 60 min 5,3 C 10,1 C
18.09.2020 08:10 8,4 C 9,2 C 17,6 C 79 % 73 % 60 % 1028,9 hPa 0,0 l/m 5,4 km/h S-SW 195 22 min 5,0 C 7,8 C
18.09.2020 07:10 6,3 C 8,7 C 17,6 C 81 % 72 % 60 % 1028,3 hPa 0,0 l/m 1,2 km/h W-SW 240 0 min 3,3 C 6,3 C
18.09.2020 06:10 6,3 C 9,1 C 17,6 C 81 % 71 % 60 % 1028,3 hPa 0,0 l/m 1,8 km/h S-SW 200 0 min 3,3 C 6,3 C
18.09.2020 05:10 6,9 C 9,4 C 17,6 C 80 % 71 % 60 % 1028,2 hPa 0,0 l/m 3,0 km/h S-SO 150 0 min 3,7 C 6,9 C
18.09.2020 04:10 7,1 C 9,8 C 17,6 C 79 % 71 % 60 % 1028,1 hPa 0,0 l/m 3,0 km/h S 190 0 min 3,7 C 7,1 C
18.09.2020 03:10 7,4 C 10,3 C 17,6 C 80 % 71 % 60 % 1028,1 hPa 0,0 l/m 3,0 km/h S-SW 210 0 min 4,2 C 7,4 C
18.09.2020 02:10 7,9 C 10,9 C 17,6 C 80 % 71 % 60 % 1027,9 hPa 0,0 l/m 2,4 km/h SW 215 0 min 4,7 C 7,9 C
18.09.2020 01:10 8,7 C 11,7 C 17,6 C 80 % 71 % 60 % 1027,8 hPa 0,0 l/m 3,0 km/h SW 230 0 min 5,4 C 8,7 C
18.09.2020 00:10 9,4 C 12,4 C 17,6 C 79 % 71 % 60 % 1028,7 hPa 0,0 l/m 3,0 km/h S-SW 200 0 min 5,9 C 9,4 C
18.09.2020 00:00 9,4 C 12,5 C 17,6 C 79 % 71 % 60 % 1028,7 hPa 0,0 l/m 2,4 km/h SW 215 0 min 5,9 C 9,4 C
_ Min-Zeit 06:35 07:10 00:00 15:45 16:35 00:00 18:10 - 18:05 - - - 06:35 06:35
Minimum _ 6,0 C 8,7 C 17,6 C 35 % 49 % 60 % 1024,8 hPa - 0,0 km/h - - - 3,0 C 6,0 C
_ Max-Zeit 16:10 17:30 00:00 06:05 08:00 00:00 09:25 00:00 12:15 - - 10:00 13:20 16:10
Maximum _ 20,4 C 18,7 C 17,6 C 81 % 73 % 60 % 1029,5 hPa 0,0 l/m 14,5 km/h
O
- - 8 min 8,1 C 20,4 C
Durchschnitt _ 11,9 C 12,8 C 17,6 C 65 % 65 % 60 % 1027,3 hPa #0,0 l/m 3,9 km/h S-SW - #10:26 h 5,0 C 11,9 C